Flugplatz Heppenheim

Für EDEP sind keine METAR/TAF Berichte vorhanden.
Es werden die Flugwettermeldungen vom Flugplatz Mannheim-City in 18 km Entfernung angezeigt.

Bericht für EDFM

vom 30.03. um 22:20 UTC

variable Windrichtung mit 1 kt

Sichtweite 10 km oder mehr

gute Sicht, keine Wolken < 5000 ft, keine CB, keine Wettererscheinungen (CAVOK)

Temperatur 2.0°C

Taupunkt -4.0°C

Luftfeuchtigkeit 64%

Luftdruck 1026 hPa

EDFM 302220Z VRB01KT CAVOK 02/M04 Q1026
Keine Prognose (TAF) verfügbar.
Impressum